sensor_id;sensor_type;location;lat;lon;timestamp;P1;durP1;ratioP1;P2;durP2;ratioP2
79454;SDS011;68900;52.134;5.420;2023-12-22T00:02:19;7.95;;;1.10;;
79454;SDS011;68900;52.134;5.420;2023-12-22T00:04:46;10.95;;;1.10;;
79454;SDS011;68900;52.134;5.420;2023-12-22T00:07:13;6.03;;;0.65;;
79454;SDS011;68900;52.134;5.420;2023-12-22T00:09:39;7.47;;;0.90;;
79454;SDS011;68900;52.134;5.420;2023-12-22T00:12:06;3.75;;;0.73;;
79454;SDS011;68900;52.134;5.420;2023-12-22T00:14:35;4.63;;;0.60;;
79454;SDS011;68900;52.134;5.420;2023-12-22T00:19:31;4.90;;;0.80;;
79454;SDS011;68900;52.134;5.420;2023-12-22T00:21:58;4.65;;;0.63;;
79454;SDS011;68900;52.134;5.420;2023-12-22T00:24:24;6.50;;;0.93;;
79454;SDS011;68900;52.134;5.420;2023-12-22T00:26:51;3.85;;;0.60;;
79454;SDS011;68900;52.134;5.420;2023-12-22T00:29:17;4.57;;;0.88;;
79454;SDS011;68900;52.134;5.420;2023-12-22T00:31:46;2.47;;;0.40;;
79454;SDS011;68900;52.134;5.420;2023-12-22T00:34:13;3.88;;;0.40;;
79454;SDS011;68900;52.134;5.420;2023-12-22T00:36:40;4.05;;;0.43;;
79454;SDS011;68900;52.134;5.420;2023-12-22T00:39:06;4.70;;;0.50;;
79454;SDS011;68900;52.134;5.420;2023-12-22T00:41:33;3.95;;;0.40;;
79454;SDS011;68900;52.134;5.420;2023-12-22T00:44:03;4.25;;;0.43;;
79454;SDS011;68900;52.134;5.420;2023-12-22T00:46:29;2.42;;;0.50;;
79454;SDS011;68900;52.134;5.420;2023-12-22T00:48:56;4.75;;;0.50;;
79454;SDS011;68900;52.134;5.420;2023-12-22T00:51:22;6.18;;;0.85;;
79454;SDS011;68900;52.134;5.420;2023-12-22T00:53:49;7.70;;;0.68;;
79454;SDS011;68900;52.134;5.420;2023-12-22T00:56:15;5.20;;;0.73;;
79454;SDS011;68900;52.134;5.420;2023-12-22T00:58:41;5.45;;;0.40;;
79454;SDS011;68900;52.134;5.420;2023-12-22T01:01:12;6.30;;;0.70;;
79454;SDS011;68900;52.134;5.420;2023-12-22T01:03:39;4.80;;;0.55;;
79454;SDS011;68900;52.134;5.420;2023-12-22T01:06:06;5.70;;;0.60;;
79454;SDS011;68900;52.134;5.420;2023-12-22T01:08:32;4.57;;;0.50;;
79454;SDS011;68900;52.134;5.420;2023-12-22T01:10:59;5.32;;;0.85;;
79454;SDS011;68900;52.134;5.420;2023-12-22T01:13:25;5.07;;;0.68;;
79454;SDS011;68900;52.134;5.420;2023-12-22T01:15:52;6.38;;;0.80;;
79454;SDS011;68900;52.134;5.420;2023-12-22T01:18:18;10.15;;;0.77;;
79454;SDS011;68900;52.134;5.420;2023-12-22T01:20:45;9.85;;;0.93;;
79454;SDS011;68900;52.134;5.420;2023-12-22T01:23:11;11.00;;;0.90;;
79454;SDS011;68900;52.134;5.420;2023-12-22T01:25:38;4.53;;;0.60;;
79454;SDS011;68900;52.134;5.420;2023-12-22T01:28:05;4.35;;;0.65;;
79454;SDS011;68900;52.134;5.420;2023-12-22T01:30:32;8.80;;;1.20;;
79454;SDS011;68900;52.134;5.420;2023-12-22T01:32:58;7.70;;;0.98;;
79454;SDS011;68900;52.134;5.420;2023-12-22T01:35:25;7.20;;;0.98;;
79454;SDS011;68900;52.134;5.420;2023-12-22T01:37:52;7.30;;;0.70;;
79454;SDS011;68900;52.134;5.420;2023-12-22T01:40:18;8.55;;;0.85;;
79454;SDS011;68900;52.134;5.420;2023-12-22T01:42:45;4.97;;;1.02;;
79454;SDS011;68900;52.134;5.420;2023-12-22T01:45:12;8.43;;;0.93;;
79454;SDS011;68900;52.134;5.420;2023-12-22T01:47:39;8.23;;;1.10;;
79454;SDS011;68900;52.134;5.420;2023-12-22T01:50:10;5.10;;;0.80;;
79454;SDS011;68900;52.134;5.420;2023-12-22T01:52:38;9.52;;;1.58;;
79454;SDS011;68900;52.134;5.420;2023-12-22T01:55:08;9.65;;;1.17;;
79454;SDS011;68900;52.134;5.420;2023-12-22T01:57:39;9.90;;;1.23;;
79454;SDS011;68900;52.134;5.420;2023-12-22T02:00:10;7.80;;;1.08;;
79454;SDS011;68900;52.134;5.420;2023-12-22T02:02:40;6.57;;;1.13;;
79454;SDS011;68900;52.134;5.420;2023-12-22T02:05:10;7.57;;;0.98;;
79454;SDS011;68900;52.134;5.420;2023-12-22T02:07:41;5.13;;;0.80;;
79454;SDS011;68900;52.134;5.420;2023-12-22T02:10:08;11.60;;;1.23;;
79454;SDS011;68900;52.134;5.420;2023-12-22T02:12:36;7.25;;;0.77;;
79454;SDS011;68900;52.134;5.420;2023-12-22T02:15:03;8.05;;;1.42;;
79454;SDS011;68900;52.134;5.420;2023-12-22T02:17:43;10.02;;;0.82;;
79454;SDS011;68900;52.134;5.420;2023-12-22T02:20:16;9.82;;;1.10;;
79454;SDS011;68900;52.134;5.420;2023-12-22T02:22:42;12.05;;;1.67;;
79454;SDS011;68900;52.134;5.420;2023-12-22T02:25:09;5.30;;;0.88;;
79454;SDS011;68900;52.134;5.420;2023-12-22T02:27:47;7.80;;;0.90;;
79454;SDS011;68900;52.134;5.420;2023-12-22T02:30:34;8.40;;;0.90;;
79454;SDS011;68900;52.134;5.420;2023-12-22T02:33:09;10.05;;;1.52;;
79454;SDS011;68900;52.134;5.420;2023-12-22T02:35:37;14.00;;;1.50;;
79454;SDS011;68900;52.134;5.420;2023-12-22T02:38:05;8.02;;;1.40;;
79454;SDS011;68900;52.134;5.420;2023-12-22T02:40:33;8.43;;;1.27;;
79454;SDS011;68900;52.134;5.420;2023-12-22T02:43:02;13.10;;;1.70;;
79454;SDS011;68900;52.134;5.420;2023-12-22T02:45:29;10.93;;;1.40;;
79454;SDS011;68900;52.134;5.420;2023-12-22T02:47:56;11.80;;;1.48;;
79454;SDS011;68900;52.134;5.420;2023-12-22T02:50:23;9.23;;;1.30;;
79454;SDS011;68900;52.134;5.420;2023-12-22T02:52:49;17.13;;;1.83;;
79454;SDS011;68900;52.134;5.420;2023-12-22T02:55:16;11.40;;;1.35;;
79454;SDS011;68900;52.134;5.420;2023-12-22T02:57:43;5.80;;;1.13;;
79454;SDS011;68900;52.134;5.420;2023-12-22T03:00:10;10.00;;;1.50;;
79454;SDS011;68900;52.134;5.420;2023-12-22T03:02:36;9.23;;;1.70;;
79454;SDS011;68900;52.134;5.420;2023-12-22T03:05:03;13.15;;;1.67;;
79454;SDS011;68900;52.134;5.420;2023-12-22T03:07:31;14.25;;;2.13;;
79454;SDS011;68900;52.134;5.420;2023-12-22T03:09:58;15.57;;;1.30;;
79454;SDS011;68900;52.134;5.420;2023-12-22T03:12:24;14.27;;;1.83;;
79454;SDS011;68900;52.134;5.420;2023-12-22T03:14:51;11.02;;;1.40;;
79454;SDS011;68900;52.134;5.420;2023-12-22T03:17:17;10.15;;;1.33;;
79454;SDS011;68900;52.134;5.420;2023-12-22T03:19:44;11.35;;;1.65;;
79454;SDS011;68900;52.134;5.420;2023-12-22T03:22:10;9.13;;;1.15;;
79454;SDS011;68900;52.134;5.420;2023-12-22T03:24:36;11.20;;;1.55;;
79454;SDS011;68900;52.134;5.420;2023-12-22T03:27:09;16.95;;;2.35;;
79454;SDS011;68900;52.134;5.420;2023-12-22T03:29:36;11.20;;;1.95;;
79454;SDS011;68900;52.134;5.420;2023-12-22T03:32:02;12.52;;;1.65;;
79454;SDS011;68900;52.134;5.420;2023-12-22T03:34:29;14.07;;;1.60;;
79454;SDS011;68900;52.134;5.420;2023-12-22T03:36:55;15.43;;;1.83;;
79454;SDS011;68900;52.134;5.420;2023-12-22T03:39:22;8.40;;;1.30;;
79454;SDS011;68900;52.134;5.420;2023-12-22T03:41:51;11.93;;;1.65;;
79454;SDS011;68900;52.134;5.420;2023-12-22T03:44:18;8.85;;;0.93;;
79454;SDS011;68900;52.134;5.420;2023-12-22T03:49:13;9.50;;;1.15;;
79454;SDS011;68900;52.134;5.420;2023-12-22T03:51:40;4.90;;;0.80;;
79454;SDS011;68900;52.134;5.420;2023-12-22T03:54:08;5.72;;;1.00;;
79454;SDS011;68900;52.134;5.420;2023-12-22T03:56:34;5.35;;;0.55;;
79454;SDS011;68900;52.134;5.420;2023-12-22T03:59:01;8.40;;;0.63;;
79454;SDS011;68900;52.134;5.420;2023-12-22T04:01:28;9.15;;;0.60;;
79454;SDS011;68900;52.134;5.420;2023-12-22T04:03:54;6.88;;;0.82;;
79454;SDS011;68900;52.134;5.420;2023-12-22T04:06:21;7.50;;;0.85;;
79454;SDS011;68900;52.134;5.420;2023-12-22T04:08:47;5.97;;;0.63;;
79454;SDS011;68900;52.134;5.420;2023-12-22T04:11:14;6.57;;;0.88;;
79454;SDS011;68900;52.134;5.420;2023-12-22T04:13:41;10.27;;;0.95;;
79454;SDS011;68900;52.134;5.420;2023-12-22T04:16:07;7.65;;;0.70;;
79454;SDS011;68900;52.134;5.420;2023-12-22T04:18:34;5.72;;;0.80;;
79454;SDS011;68900;52.134;5.420;2023-12-22T04:21:00;6.03;;;1.00;;
79454;SDS011;68900;52.134;5.420;2023-12-22T04:23:27;8.60;;;1.00;;
79454;SDS011;68900;52.134;5.420;2023-12-22T04:25:53;7.93;;;1.27;;
79454;SDS011;68900;52.134;5.420;2023-12-22T04:28:21;13.50;;;1.30;;
79454;SDS011;68900;52.134;5.420;2023-12-22T04:30:47;7.50;;;0.90;;
79454;SDS011;68900;52.134;5.420;2023-12-22T04:33:13;5.45;;;0.95;;
79454;SDS011;68900;52.134;5.420;2023-12-22T04:35:40;7.60;;;0.90;;
79454;SDS011;68900;52.134;5.420;2023-12-22T04:38:07;8.27;;;1.05;;
79454;SDS011;68900;52.134;5.420;2023-12-22T04:40:34;6.13;;;1.00;;
79454;SDS011;68900;52.134;5.420;2023-12-22T04:43:00;9.70;;;1.48;;
79454;SDS011;68900;52.134;5.420;2023-12-22T04:45:27;6.93;;;0.90;;
79454;SDS011;68900;52.134;5.420;2023-12-22T04:47:54;7.00;;;1.20;;
79454;SDS011;68900;52.134;5.420;2023-12-22T04:50:20;12.90;;;1.35;;
79454;SDS011;68900;52.134;5.420;2023-12-22T04:52:47;8.40;;;0.98;;
79454;SDS011;68900;52.134;5.420;2023-12-22T04:55:13;9.98;;;1.48;;
79454;SDS011;68900;52.134;5.420;2023-12-22T04:57:41;13.48;;;1.35;;
79454;SDS011;68900;52.134;5.420;2023-12-22T05:00:07;7.05;;;1.40;;
79454;SDS011;68900;52.134;5.420;2023-12-22T05:02:34;11.80;;;1.40;;
79454;SDS011;68900;52.134;5.420;2023-12-22T05:05:04;9.40;;;1.20;;
79454;SDS011;68900;52.134;5.420;2023-12-22T05:07:30;10.88;;;1.27;;
79454;SDS011;68900;52.134;5.420;2023-12-22T05:09:57;7.68;;;1.33;;
79454;SDS011;68900;52.134;5.420;2023-12-22T05:12:23;10.02;;;1.80;;
79454;SDS011;68900;52.134;5.420;2023-12-22T05:14:50;8.40;;;1.02;;
79454;SDS011;68900;52.134;5.420;2023-12-22T05:17:16;8.02;;;1.10;;
79454;SDS011;68900;52.134;5.420;2023-12-22T05:19:43;13.23;;;1.13;;
79454;SDS011;68900;52.134;5.420;2023-12-22T05:22:09;11.43;;;1.77;;
79454;SDS011;68900;52.134;5.420;2023-12-22T05:24:37;14.18;;;1.73;;
79454;SDS011;68900;52.134;5.420;2023-12-22T05:27:03;12.02;;;1.55;;
79454;SDS011;68900;52.134;5.420;2023-12-22T05:29:30;15.77;;;1.77;;
79454;SDS011;68900;52.134;5.420;2023-12-22T05:31:57;10.27;;;1.35;;
79454;SDS011;68900;52.134;5.420;2023-12-22T05:34:23;6.15;;;0.90;;
79454;SDS011;68900;52.134;5.420;2023-12-22T05:36:50;11.23;;;1.40;;
79454;SDS011;68900;52.134;5.420;2023-12-22T05:39:17;13.98;;;1.70;;
79454;SDS011;68900;52.134;5.420;2023-12-22T05:41:43;7.70;;;1.05;;
79454;SDS011;68900;52.134;5.420;2023-12-22T05:44:10;10.90;;;1.42;;
79454;SDS011;68900;52.134;5.420;2023-12-22T05:46:37;9.90;;;1.33;;
79454;SDS011;68900;52.134;5.420;2023-12-22T05:49:07;16.23;;;1.30;;
79454;SDS011;68900;52.134;5.420;2023-12-22T05:51:40;12.18;;;1.83;;
79454;SDS011;68900;52.134;5.420;2023-12-22T05:54:07;16.95;;;1.52;;
79454;SDS011;68900;52.134;5.420;2023-12-22T05:56:34;8.13;;;1.30;;
79454;SDS011;68900;52.134;5.420;2023-12-22T05:59:01;7.40;;;1.20;;
79454;SDS011;68900;52.134;5.420;2023-12-22T06:01:27;8.15;;;1.10;;
79454;SDS011;68900;52.134;5.420;2023-12-22T06:03:54;9.90;;;1.15;;
79454;SDS011;68900;52.134;5.420;2023-12-22T06:06:21;10.10;;;1.13;;
79454;SDS011;68900;52.134;5.420;2023-12-22T06:08:48;9.02;;;1.17;;
79454;SDS011;68900;52.134;5.420;2023-12-22T06:11:15;6.15;;;1.05;;
79454;SDS011;68900;52.134;5.420;2023-12-22T06:13:42;9.60;;;1.17;;
79454;SDS011;68900;52.134;5.420;2023-12-22T06:16:12;12.95;;;1.60;;
79454;SDS011;68900;52.134;5.420;2023-12-22T06:18:42;13.35;;;1.70;;
79454;SDS011;68900;52.134;5.420;2023-12-22T06:21:08;6.63;;;1.17;;
79454;SDS011;68900;52.134;5.420;2023-12-22T06:23:36;11.32;;;1.02;;
79454;SDS011;68900;52.134;5.420;2023-12-22T06:26:10;14.90;;;1.75;;
79454;SDS011;68900;52.134;5.420;2023-12-22T06:28:37;10.48;;;1.23;;
79454;SDS011;68900;52.134;5.420;2023-12-22T06:31:07;6.97;;;1.25;;
79454;SDS011;68900;52.134;5.420;2023-12-22T06:33:34;11.13;;;1.70;;
79454;SDS011;68900;52.134;5.420;2023-12-22T06:36:01;9.07;;;1.38;;
79454;SDS011;68900;52.134;5.420;2023-12-22T06:38:28;9.13;;;1.50;;
79454;SDS011;68900;52.134;5.420;2023-12-22T06:40:55;10.70;;;1.35;;
79454;SDS011;68900;52.134;5.420;2023-12-22T06:43:22;13.68;;;1.85;;
79454;SDS011;68900;52.134;5.420;2023-12-22T06:45:48;11.60;;;1.40;;
79454;SDS011;68900;52.134;5.420;2023-12-22T06:48:15;11.55;;;1.33;;
79454;SDS011;68900;52.134;5.420;2023-12-22T06:50:41;9.90;;;1.70;;
79454;SDS011;68900;52.134;5.420;2023-12-22T06:53:11;11.38;;;1.50;;
79454;SDS011;68900;52.134;5.420;2023-12-22T06:55:51;9.98;;;1.20;;
79454;SDS011;68900;52.134;5.420;2023-12-22T06:58:17;12.88;;;1.92;;
79454;SDS011;68900;52.134;5.420;2023-12-22T07:00:44;11.32;;;1.42;;
79454;SDS011;68900;52.134;5.420;2023-12-22T07:03:14;10.07;;;1.35;;
79454;SDS011;68900;52.134;5.420;2023-12-22T07:05:43;13.57;;;2.33;;
79454;SDS011;68900;52.134;5.420;2023-12-22T07:08:10;13.57;;;2.00;;
79454;SDS011;68900;52.134;5.420;2023-12-22T07:10:37;13.00;;;1.63;;
79454;SDS011;68900;52.134;5.420;2023-12-22T07:13:04;17.02;;;2.22;;
79454;SDS011;68900;52.134;5.420;2023-12-22T07:15:31;14.70;;;1.88;;
79454;SDS011;68900;52.134;5.420;2023-12-22T07:17:58;12.18;;;1.65;;
79454;SDS011;68900;52.134;5.420;2023-12-22T07:20:25;12.48;;;1.85;;
79454;SDS011;68900;52.134;5.420;2023-12-22T07:22:51;19.00;;;1.98;;
79454;SDS011;68900;52.134;5.420;2023-12-22T07:25:21;13.85;;;2.03;;
79454;SDS011;68900;52.134;5.420;2023-12-22T07:27:48;16.77;;;1.90;;
79454;SDS011;68900;52.134;5.420;2023-12-22T07:30:16;15.50;;;2.25;;
79454;SDS011;68900;52.134;5.420;2023-12-22T07:32:43;24.55;;;2.63;;
79454;SDS011;68900;52.134;5.420;2023-12-22T07:35:11;23.20;;;2.88;;
79454;SDS011;68900;52.134;5.420;2023-12-22T07:37:38;15.57;;;2.60;;
79454;SDS011;68900;52.134;5.420;2023-12-22T07:40:05;19.58;;;2.40;;
79454;SDS011;68900;52.134;5.420;2023-12-22T07:42:32;18.63;;;2.08;;
79454;SDS011;68900;52.134;5.420;2023-12-22T07:44:59;14.32;;;2.63;;
79454;SDS011;68900;52.134;5.420;2023-12-22T07:47:27;17.15;;;2.42;;
79454;SDS011;68900;52.134;5.420;2023-12-22T07:49:54;16.98;;;2.63;;
79454;SDS011;68900;52.134;5.420;2023-12-22T07:52:20;9.85;;;1.67;;
79454;SDS011;68900;52.134;5.420;2023-12-22T07:54:47;11.52;;;1.42;;
79454;SDS011;68900;52.134;5.420;2023-12-22T07:57:14;9.88;;;2.00;;
79454;SDS011;68900;52.134;5.420;2023-12-22T07:59:40;11.23;;;2.03;;
79454;SDS011;68900;52.134;5.420;2023-12-22T08:02:07;9.73;;;1.73;;
79454;SDS011;68900;52.134;5.420;2023-12-22T08:04:33;16.13;;;1.85;;
79454;SDS011;68900;52.134;5.420;2023-12-22T08:07:00;14.02;;;2.10;;
79454;SDS011;68900;52.134;5.420;2023-12-22T08:09:28;22.17;;;2.08;;
79454;SDS011;68900;52.134;5.420;2023-12-22T08:11:54;19.65;;;2.47;;
79454;SDS011;68900;52.134;5.420;2023-12-22T08:14:23;15.65;;;2.13;;
79454;SDS011;68900;52.134;5.420;2023-12-22T08:16:49;19.83;;;2.75;;
79454;SDS011;68900;52.134;5.420;2023-12-22T08:19:16;18.90;;;2.63;;
79454;SDS011;68900;52.134;5.420;2023-12-22T08:21:42;14.82;;;1.88;;
79454;SDS011;68900;52.134;5.420;2023-12-22T08:24:12;12.93;;;1.90;;
79454;SDS011;68900;52.134;5.420;2023-12-22T08:29:14;18.05;;;2.20;;
79454;SDS011;68900;52.134;5.420;2023-12-22T08:31:42;14.38;;;1.88;;
79454;SDS011;68900;52.134;5.420;2023-12-22T08:34:10;13.77;;;1.77;;
79454;SDS011;68900;52.134;5.420;2023-12-22T08:36:37;14.65;;;1.65;;
79454;SDS011;68900;52.134;5.420;2023-12-22T08:39:04;11.52;;;1.40;;
79454;SDS011;68900;52.134;5.420;2023-12-22T08:41:34;11.45;;;1.85;;
79454;SDS011;68900;52.134;5.420;2023-12-22T08:44:05;11.82;;;1.50;;
79454;SDS011;68900;52.134;5.420;2023-12-22T08:46:33;6.00;;;0.90;;
79454;SDS011;68900;52.134;5.420;2023-12-22T08:49:00;8.77;;;1.60;;
79454;SDS011;68900;52.134;5.420;2023-12-22T08:51:27;8.90;;;1.40;;
79454;SDS011;68900;52.134;5.420;2023-12-22T08:53:54;9.63;;;1.40;;
79454;SDS011;68900;52.134;5.420;2023-12-22T08:56:23;7.78;;;1.52;;
79454;SDS011;68900;52.134;5.420;2023-12-22T08:58:51;11.95;;;1.15;;
79454;SDS011;68900;52.134;5.420;2023-12-22T09:01:19;9.95;;;1.27;;
79454;SDS011;68900;52.134;5.420;2023-12-22T09:03:46;12.80;;;1.45;;
79454;SDS011;68900;52.134;5.420;2023-12-22T09:06:20;13.63;;;1.70;;
79454;SDS011;68900;52.134;5.420;2023-12-22T09:08:47;5.32;;;1.10;;
79454;SDS011;68900;52.134;5.420;2023-12-22T09:11:17;11.90;;;1.52;;
79454;SDS011;68900;52.134;5.420;2023-12-22T09:13:45;9.20;;;1.33;;
79454;SDS011;68900;52.134;5.420;2023-12-22T09:16:12;10.73;;;1.60;;
79454;SDS011;68900;52.134;5.420;2023-12-22T09:18:41;14.05;;;2.17;;
79454;SDS011;68900;52.134;5.420;2023-12-22T09:21:11;11.75;;;1.42;;
79454;SDS011;68900;52.134;5.420;2023-12-22T09:23:38;7.93;;;1.75;;
79454;SDS011;68900;52.134;5.420;2023-12-22T09:26:04;5.82;;;1.42;;
79454;SDS011;68900;52.134;5.420;2023-12-22T09:28:31;4.90;;;0.50;;
79454;SDS011;68900;52.134;5.420;2023-12-22T09:30:57;3.70;;;0.60;;
79454;SDS011;68900;52.134;5.420;2023-12-22T09:33:24;3.08;;;0.30;;
79454;SDS011;68900;52.134;5.420;2023-12-22T09:36:06;2.42;;;0.22;;
79454;SDS011;68900;52.134;5.420;2023-12-22T09:38:33;2.15;;;0.50;;
79454;SDS011;68900;52.134;5.420;2023-12-22T09:40:59;2.65;;;0.30;;
79454;SDS011;68900;52.134;5.420;2023-12-22T09:43:27;2.85;;;0.38;;
79454;SDS011;68900;52.134;5.420;2023-12-22T09:45:54;2.83;;;0.32;;
79454;SDS011;68900;52.134;5.420;2023-12-22T09:48:22;2.03;;;0.40;;
79454;SDS011;68900;52.134;5.420;2023-12-22T09:50:54;3.22;;;0.30;;
79454;SDS011;68900;52.134;5.420;2023-12-22T09:53:21;4.32;;;0.30;;
79454;SDS011;68900;52.134;5.420;2023-12-22T09:55:49;3.15;;;0.45;;
79454;SDS011;68900;52.134;5.420;2023-12-22T09:58:16;6.57;;;0.75;;
79454;SDS011;68900;52.134;5.420;2023-12-22T10:00:43;4.85;;;0.70;;
79454;SDS011;68900;52.134;5.420;2023-12-22T10:03:11;7.55;;;0.88;;
79454;SDS011;68900;52.134;5.420;2023-12-22T10:05:42;8.13;;;1.33;;
79454;SDS011;68900;52.134;5.420;2023-12-22T10:08:09;5.10;;;0.98;;
79454;SDS011;68900;52.134;5.420;2023-12-22T10:10:37;9.05;;;1.35;;
79454;SDS011;68900;52.134;5.420;2023-12-22T10:13:05;10.27;;;1.30;;
79454;SDS011;68900;52.134;5.420;2023-12-22T10:15:39;7.88;;;0.98;;
79454;SDS011;68900;52.134;5.420;2023-12-22T10:18:07;6.20;;;1.05;;
79454;SDS011;68900;52.134;5.420;2023-12-22T10:20:35;7.25;;;0.80;;
79454;SDS011;68900;52.134;5.420;2023-12-22T10:23:02;13.25;;;1.55;;
79454;SDS011;68900;52.134;5.420;2023-12-22T10:25:31;5.65;;;1.02;;
79454;SDS011;68900;52.134;5.420;2023-12-22T10:31:09;8.70;;;0.88;;
79454;SDS011;68900;52.134;5.420;2023-12-22T10:40:37;6.03;;;1.10;;
79454;SDS011;68900;52.134;5.420;2023-12-22T10:43:04;7.28;;;0.80;;
79454;SDS011;68900;52.134;5.420;2023-12-22T10:45:31;8.20;;;1.00;;
79454;SDS011;68900;52.134;5.420;2023-12-22T10:47:57;8.70;;;1.00;;
79454;SDS011;68900;52.134;5.420;2023-12-22T10:50:24;6.03;;;1.08;;
79454;SDS011;68900;52.134;5.420;2023-12-22T10:52:51;7.22;;;1.00;;
79454;SDS011;68900;52.134;5.420;2023-12-22T10:55:18;9.60;;;1.17;;
79454;SDS011;68900;52.134;5.420;2023-12-22T10:57:45;6.82;;;1.10;;
79454;SDS011;68900;52.134;5.420;2023-12-22T11:00:16;5.05;;;1.20;;
79454;SDS011;68900;52.134;5.420;2023-12-22T11:02:48;8.65;;;0.93;;
79454;SDS011;68900;52.134;5.420;2023-12-22T11:05:16;4.55;;;0.77;;
79454;SDS011;68900;52.134;5.420;2023-12-22T11:08:03;7.25;;;1.15;;
79454;SDS011;68900;52.134;5.420;2023-12-22T11:10:35;8.20;;;1.30;;
79454;SDS011;68900;52.134;5.420;2023-12-22T11:13:04;6.10;;;1.00;;
79454;SDS011;68900;52.134;5.420;2023-12-22T11:15:31;7.53;;;0.82;;
79454;SDS011;68900;52.134;5.420;2023-12-22T11:17:59;6.10;;;1.02;;
79454;SDS011;68900;52.134;5.420;2023-12-22T11:20:28;6.95;;;2.35;;
79454;SDS011;68900;52.134;5.420;2023-12-22T11:23:01;7.82;;;0.88;;
79454;SDS011;68900;52.134;5.420;2023-12-22T11:25:31;8.23;;;1.48;;
79454;SDS011;68900;52.134;5.420;2023-12-22T11:27:59;5.40;;;0.88;;
79454;SDS011;68900;52.134;5.420;2023-12-22T11:30:29;6.05;;;0.75;;
79454;SDS011;68900;52.134;5.420;2023-12-22T11:32:57;7.55;;;0.82;;
79454;SDS011;68900;52.134;5.420;2023-12-22T11:35:24;3.75;;;1.00;;
79454;SDS011;68900;52.134;5.420;2023-12-22T11:37:59;5.65;;;0.75;;
79454;SDS011;68900;52.134;5.420;2023-12-22T11:40:28;8.32;;;1.05;;
79454;SDS011;68900;52.134;5.420;2023-12-22T11:42:55;7.45;;;0.70;;
79454;SDS011;68900;52.134;5.420;2023-12-22T11:45:22;6.50;;;1.00;;
79454;SDS011;68900;52.134;5.420;2023-12-22T11:47:50;6.55;;;0.93;;
79454;SDS011;68900;52.134;5.420;2023-12-22T11:50:30;5.80;;;0.98;;
79454;SDS011;68900;52.134;5.420;2023-12-22T11:52:57;6.88;;;1.38;;
79454;SDS011;68900;52.134;5.420;2023-12-22T11:55:56;5.40;;;1.00;;
79454;SDS011;68900;52.134;5.420;2023-12-22T12:01:18;4.57;;;0.70;;
79454;SDS011;68900;52.134;5.420;2023-12-22T12:03:50;4.28;;;0.65;;
79454;SDS011;68900;52.134;5.420;2023-12-22T12:06:25;4.20;;;0.95;;
79454;SDS011;68900;52.134;5.420;2023-12-22T12:08:57;6.45;;;0.73;;
79454;SDS011;68900;52.134;5.420;2023-12-22T12:14:28;10.48;;;1.05;;
79454;SDS011;68900;52.134;5.420;2023-12-22T12:16:59;8.48;;;1.00;;
79454;SDS011;68900;52.134;5.420;2023-12-22T12:19:33;5.03;;;0.57;;
79454;SDS011;68900;52.134;5.420;2023-12-22T12:22:06;4.60;;;0.70;;
79454;SDS011;68900;52.134;5.420;2023-12-22T12:24:33;7.97;;;0.90;;
79454;SDS011;68900;52.134;5.420;2023-12-22T12:29:31;6.75;;;0.70;;
79454;SDS011;68900;52.134;5.420;2023-12-22T12:32:04;5.82;;;0.90;;
79454;SDS011;68900;52.134;5.420;2023-12-22T12:34:34;5.88;;;1.00;;
79454;SDS011;68900;52.134;5.420;2023-12-22T12:37:05;8.85;;;0.60;;
79454;SDS011;68900;52.134;5.420;2023-12-22T12:39:33;9.32;;;1.17;;
79454;SDS011;68900;52.134;5.420;2023-12-22T12:42:01;7.95;;;1.02;;
79454;SDS011;68900;52.134;5.420;2023-12-22T12:44:35;4.82;;;0.75;;
79454;SDS011;68900;52.134;5.420;2023-12-22T12:47:12;8.15;;;0.90;;
79454;SDS011;68900;52.134;5.420;2023-12-22T12:49:39;8.10;;;0.90;;
79454;SDS011;68900;52.134;5.420;2023-12-22T12:52:13;8.13;;;0.75;;
79454;SDS011;68900;52.134;5.420;2023-12-22T12:54:40;7.32;;;0.70;;
79454;SDS011;68900;52.134;5.420;2023-12-22T12:57:12;4.57;;;0.98;;
79454;SDS011;68900;52.134;5.420;2023-12-22T12:59:44;9.60;;;1.20;;
79454;SDS011;68900;52.134;5.420;2023-12-22T13:02:11;8.60;;;0.90;;
79454;SDS011;68900;52.134;5.420;2023-12-22T13:04:37;7.13;;;0.90;;
79454;SDS011;68900;52.134;5.420;2023-12-22T13:07:06;5.68;;;0.68;;
79454;SDS011;68900;52.134;5.420;2023-12-22T13:09:32;7.10;;;1.10;;
79454;SDS011;68900;52.134;5.420;2023-12-22T13:12:00;9.35;;;0.90;;
79454;SDS011;68900;52.134;5.420;2023-12-22T13:14:26;7.72;;;0.90;;
79454;SDS011;68900;52.134;5.420;2023-12-22T13:16:54;8.13;;;1.20;;
79454;SDS011;68900;52.134;5.420;2023-12-22T13:19:23;8.57;;;1.10;;
79454;SDS011;68900;52.134;5.420;2023-12-22T13:21:54;8.15;;;1.10;;
79454;SDS011;68900;52.134;5.420;2023-12-22T13:24:21;10.25;;;0.98;;
79454;SDS011;68900;52.134;5.420;2023-12-22T13:26:58;8.13;;;0.95;;
79454;SDS011;68900;52.134;5.420;2023-12-22T13:29:30;5.32;;;1.00;;
79454;SDS011;68900;52.134;5.420;2023-12-22T13:32:08;9.23;;;1.02;;
79454;SDS011;68900;52.134;5.420;2023-12-22T13:34:35;9.73;;;1.10;;
79454;SDS011;68900;52.134;5.420;2023-12-22T13:37:02;10.75;;;1.15;;
79454;SDS011;68900;52.134;5.420;2023-12-22T13:39:29;7.60;;;1.27;;
79454;SDS011;68900;52.134;5.420;2023-12-22T13:41:56;3.28;;;0.60;;
79454;SDS011;68900;52.134;5.420;2023-12-22T13:44:22;5.28;;;0.73;;
79454;SDS011;68900;52.134;5.420;2023-12-22T13:46:49;7.88;;;1.00;;
79454;SDS011;68900;52.134;5.420;2023-12-22T13:49:16;8.25;;;1.00;;
79454;SDS011;68900;52.134;5.420;2023-12-22T13:51:43;6.43;;;1.05;;
79454;SDS011;68900;52.134;5.420;2023-12-22T13:54:11;4.25;;;0.70;;
79454;SDS011;68900;52.134;5.420;2023-12-22T13:56:38;5.50;;;0.73;;
79454;SDS011;68900;52.134;5.420;2023-12-22T13:59:09;9.25;;;0.93;;
79454;SDS011;68900;52.134;5.420;2023-12-22T14:01:37;12.48;;;1.10;;
79454;SDS011;68900;52.134;5.420;2023-12-22T14:04:04;6.35;;;0.80;;
79454;SDS011;68900;52.134;5.420;2023-12-22T14:06:31;7.50;;;0.98;;
79454;SDS011;68900;52.134;5.420;2023-12-22T14:09:00;8.02;;;1.10;;
79454;SDS011;68900;52.134;5.420;2023-12-22T14:11:27;11.57;;;1.38;;
79454;SDS011;68900;52.134;5.420;2023-12-22T14:13:57;10.57;;;1.63;;
79454;SDS011;68900;52.134;5.420;2023-12-22T14:16:24;8.10;;;0.85;;
79454;SDS011;68900;52.134;5.420;2023-12-22T14:18:51;8.90;;;1.60;;
79454;SDS011;68900;52.134;5.420;2023-12-22T14:21:20;7.68;;;1.10;;
79454;SDS011;68900;52.134;5.420;2023-12-22T14:26:15;10.40;;;0.93;;
79454;SDS011;68900;52.134;5.420;2023-12-22T14:28:43;9.35;;;1.45;;
79454;SDS011;68900;52.134;5.420;2023-12-22T14:31:36;8.77;;;1.55;;
79454;SDS011;68900;52.134;5.420;2023-12-22T14:34:21;6.60;;;0.95;;
79454;SDS011;68900;52.134;5.420;2023-12-22T14:36:50;11.02;;;1.10;;
79454;SDS011;68900;52.134;5.420;2023-12-22T14:39:44;7.65;;;1.20;;
79454;SDS011;68900;52.134;5.420;2023-12-22T14:42:15;10.32;;;1.15;;
79454;SDS011;68900;52.134;5.420;2023-12-22T14:44:43;10.70;;;1.27;;
79454;SDS011;68900;52.134;5.420;2023-12-22T14:47:09;8.52;;;1.20;;
79454;SDS011;68900;52.134;5.420;2023-12-22T14:49:39;14.50;;;1.38;;
79454;SDS011;68900;52.134;5.420;2023-12-22T14:52:07;12.40;;;1.27;;
79454;SDS011;68900;52.134;5.420;2023-12-22T14:54:36;10.13;;;1.13;;
79454;SDS011;68900;52.134;5.420;2023-12-22T14:57:03;7.55;;;0.80;;
79454;SDS011;68900;52.134;5.420;2023-12-22T14:59:29;12.00;;;1.23;;
79454;SDS011;68900;52.134;5.420;2023-12-22T15:01:56;7.75;;;1.17;;
79454;SDS011;68900;52.134;5.420;2023-12-22T15:04:23;14.77;;;1.65;;
79454;SDS011;68900;52.134;5.420;2023-12-22T15:06:52;6.15;;;1.20;;
79454;SDS011;68900;52.134;5.420;2023-12-22T15:09:27;6.90;;;1.00;;
79454;SDS011;68900;52.134;5.420;2023-12-22T15:11:53;10.80;;;1.30;;
79454;SDS011;68900;52.134;5.420;2023-12-22T15:14:22;8.95;;;1.20;;
79454;SDS011;68900;52.134;5.420;2023-12-22T15:16:48;13.82;;;1.65;;
79454;SDS011;68900;52.134;5.420;2023-12-22T15:19:18;6.15;;;1.00;;